createdAt,value
2019-05-15T00:00:02.812Z,3.05
2019-05-15T00:01:02.626Z,2.92
2019-05-15T00:02:03.551Z,3.21
2019-05-15T00:03:03.231Z,2.98
2019-05-15T00:04:03.605Z,2.6
2019-05-15T00:05:03.325Z,2.39
2019-05-15T00:06:03.296Z,3.02
2019-05-15T00:07:03.083Z,3.18
2019-05-15T00:08:03.449Z,2.62
2019-05-15T00:09:03.215Z,2.74
2019-05-15T00:10:03.291Z,2.59
2019-05-15T00:11:03.222Z,2.58
2019-05-15T00:12:03.261Z,3.18
2019-05-15T00:13:02.987Z,2.66
2019-05-15T00:14:02.901Z,2.99
2019-05-15T00:15:03.188Z,2.87
2019-05-15T00:16:02.950Z,3.03
2019-05-15T00:17:02.992Z,2.74
2019-05-15T00:18:02.802Z,2.89
2019-05-15T00:19:03.013Z,2.76
2019-05-15T00:20:02.563Z,2.72
2019-05-15T00:21:02.826Z,2.55
2019-05-15T00:22:02.716Z,2.6
2019-05-15T00:23:03.373Z,2.55
2019-05-15T00:24:02.556Z,2.79
2019-05-15T00:25:02.824Z,2.79
2019-05-15T00:26:02.747Z,3.12
2019-05-15T00:27:03.203Z,2.75
2019-05-15T00:28:02.609Z,2.75
2019-05-15T00:29:16.219Z,2.58
2019-05-15T00:30:03.387Z,2.3
2019-05-15T00:31:03.313Z,2.3
2019-05-15T00:32:03.157Z,2.64
2019-05-15T00:33:03.402Z,2.99
2019-05-15T00:34:03.149Z,2.51
2019-05-15T00:35:03.290Z,2.81
2019-05-15T00:36:03.308Z,2.68
2019-05-15T00:37:03.115Z,2.98
2019-05-15T00:38:03.187Z,2.8
2019-05-15T00:39:03.236Z,2.71
2019-05-15T00:40:02.932Z,2.49
2019-05-15T00:41:02.934Z,2.72
2019-05-15T00:42:02.763Z,2.86
2019-05-15T00:43:02.840Z,2.58
2019-05-15T00:44:02.809Z,2.74
2019-05-15T00:45:03.095Z,2.54
2019-05-15T00:46:02.859Z,2.56
2019-05-15T00:47:02.703Z,2.76
2019-05-15T00:48:02.749Z,2.49
2019-05-15T00:49:02.623Z,2.48
2019-05-15T00:50:02.658Z,2.84
2019-05-15T00:51:03.555Z,2.57
2019-05-15T00:52:02.883Z,2.66
2019-05-15T00:53:02.674Z,2.57
2019-05-15T00:54:03.391Z,2.7
2019-05-15T00:55:03.323Z,2.7
2019-05-15T00:56:03.151Z,2.87
2019-05-15T00:57:03.409Z,2.71
2019-05-15T00:58:03.240Z,2.21
2019-05-15T00:59:03.357Z,2.58
2019-05-15T01:00:03.866Z,2.86
2019-05-15T01:01:03.362Z,2.49
2019-05-15T01:02:03.558Z,2.89
2019-05-15T01:03:03.318Z,2.96
2019-05-15T01:04:03.541Z,2.51
2019-05-15T01:05:03.212Z,2.62
2019-05-15T01:06:03.086Z,2.88
2019-05-15T01:07:03.243Z,2.91
2019-05-15T01:08:03.139Z,2.92
2019-05-15T01:09:03.032Z,2.94
2019-05-15T01:10:03.141Z,2.69
2019-05-15T01:11:02.911Z,2.51
2019-05-15T01:12:03.190Z,2.05
2019-05-15T01:13:02.992Z,2.44
2019-05-15T01:14:02.994Z,2.1
2019-05-15T01:15:02.895Z,2.65
2019-05-15T01:16:03.096Z,2.43
2019-05-15T01:17:03.005Z,2.43
2019-05-15T01:18:03.346Z,2.82
2019-05-15T01:19:02.779Z,2.71
2019-05-15T01:20:02.641Z,2.71
2019-05-15T01:21:02.813Z,2.14
2019-05-15T01:22:03.506Z,2.36
2019-05-15T01:23:02.475Z,2.36
2019-05-15T01:24:02.657Z,2.54
2019-05-15T01:25:02.953Z,2.56
2019-05-15T01:26:02.846Z,2.51
2019-05-15T01:27:03.591Z,2.27
2019-05-15T01:28:02.828Z,2.53
2019-05-15T01:29:03.545Z,2.16
2019-05-15T01:30:03.626Z,2.93
2019-05-15T01:31:03.347Z,2.32
2019-05-15T01:32:03.374Z,2.49
2019-05-15T01:33:03.209Z,2.52
2019-05-15T01:34:03.668Z,2.55
2019-05-15T01:35:03.287Z,2.24
2019-05-15T01:36:03.373Z,2.72
2019-05-15T01:37:03.454Z,2.61
2019-05-15T01:38:03.332Z,2.29
2019-05-15T01:39:03.234Z,2.06
2019-05-15T01:40:03.293Z,2.35
2019-05-15T01:41:03.369Z,2.39
2019-05-15T01:42:03.190Z,2.29
2019-05-15T01:43:03.093Z,2.28
2019-05-15T01:44:03.402Z,2.28
2019-05-15T01:45:03.294Z,2.09
2019-05-15T01:46:03.383Z,1.85
2019-05-15T01:47:02.900Z,2.24
2019-05-15T01:48:02.909Z,1.88
2019-05-15T01:49:03.036Z,2.29
2019-05-15T01:50:02.853Z,1.72
2019-05-15T01:51:02.976Z,1.82
2019-05-15T01:52:02.926Z,2.42
2019-05-15T01:53:02.781Z,2.21
2019-05-15T01:54:02.934Z,2.18
2019-05-15T01:55:02.765Z,2.34
2019-05-15T01:56:03.381Z,2.23
2019-05-15T01:57:02.851Z,2.24
2019-05-15T01:58:02.826Z,2.28
2019-05-15T01:59:02.622Z,2.21
2019-05-15T02:00:04.004Z,2.54
2019-05-15T02:01:04.105Z,2.19
2019-05-15T02:02:03.570Z,1.95
2019-05-15T02:03:03.359Z,1.82
2019-05-15T02:04:03.393Z,2.01
2019-05-15T02:05:02.929Z,2.01
2019-05-15T02:06:03.331Z,2.09
2019-05-15T02:07:03.439Z,2.28
2019-05-15T02:08:03.779Z,2.28
2019-05-15T02:09:03.771Z,2.35
2019-05-15T02:10:03.310Z,2.35
2019-05-15T02:11:02.969Z,2.35
2019-05-15T02:12:03.634Z,2.17
2019-05-15T02:13:03.180Z,2.56
2019-05-15T02:14:03.729Z,2.74
2019-05-15T02:15:03.392Z,2.28
2019-05-15T02:16:03.488Z,2.06
2019-05-15T02:17:03.238Z,2.45
2019-05-15T02:18:03.222Z,2.15
2019-05-15T02:19:02.951Z,2.54
2019-05-15T02:20:02.807Z,2.12
2019-05-15T02:21:07.454Z,1.65
2019-05-15T02:22:02.696Z,1.84
2019-05-15T02:23:03.123Z,2.23
2019-05-15T02:24:02.738Z,2.1
2019-05-15T02:25:02.942Z,2.14
2019-05-15T02:26:02.547Z,2.25
2019-05-15T02:27:02.769Z,2.31
2019-05-15T02:28:03.712Z,2.09
2019-05-15T02:29:02.991Z,1.86
2019-05-15T02:30:28.195Z,2.1
2019-05-15T02:31:02.677Z,2.2
2019-05-15T02:32:02.867Z,1.97
2019-05-15T02:33:03.732Z,1.98
2019-05-15T02:34:03.456Z,1.92
2019-05-15T02:35:03.351Z,2.34
2019-05-15T02:36:03.572Z,2.12
2019-05-15T02:37:03.296Z,2.2
2019-05-15T02:38:03.596Z,2.08
2019-05-15T02:39:03.376Z,2.61
2019-05-15T02:40:03.691Z,2.49
2019-05-15T02:41:03.500Z,2.36
2019-05-15T02:42:03.284Z,2.38
2019-05-15T02:43:03.344Z,2.3
2019-05-15T02:44:03.242Z,1.99
2019-05-15T02:45:03.379Z,2.19
2019-05-15T02:46:03.252Z,2.02
2019-05-15T02:47:03.360Z,2.32
2019-05-15T02:48:02.894Z,1.99
2019-05-15T02:49:03.557Z,1.82
2019-05-15T02:50:03.208Z,2
2019-05-15T02:51:03.168Z,2.28
2019-05-15T02:52:03.069Z,2.1
2019-05-15T02:53:03.255Z,1.87
2019-05-15T02:54:03.211Z,2.39
2019-05-15T02:55:03.176Z,2.16
2019-05-15T02:56:03.124Z,2.1
2019-05-15T02:57:03.054Z,2.1
2019-05-15T02:58:02.898Z,2.2
2019-05-15T02:59:02.917Z,2.12
2019-05-15T03:00:02.794Z,2.12
2019-05-15T03:01:02.769Z,2.03
2019-05-15T03:02:03.067Z,2.16
2019-05-15T03:03:02.707Z,2.14
2019-05-15T03:04:02.629Z,1.95
2019-05-15T03:05:02.801Z,2.25
2019-05-15T03:06:02.728Z,2.34
2019-05-15T03:07:02.923Z,1.97
2019-05-15T03:08:03.365Z,2.06
2019-05-15T03:09:02.603Z,2.54
2019-05-15T03:10:02.960Z,1.87
2019-05-15T03:11:03.369Z,2.44
2019-05-15T03:12:03.378Z,2.09
2019-05-15T03:13:03.629Z,1.66
2019-05-15T03:14:03.412Z,2.39
2019-05-15T03:15:03.631Z,2.01
2019-05-15T03:16:03.505Z,2.37
2019-05-15T03:17:03.700Z,2.59
2019-05-15T03:18:03.645Z,2.42
2019-05-15T03:19:03.228Z,2.53
2019-05-15T03:20:03.515Z,2.14
2019-05-15T03:21:03.150Z,2.08
2019-05-15T03:22:03.303Z,2.57
2019-05-15T03:23:03.341Z,2.46
2019-05-15T03:24:03.408Z,1.91
2019-05-15T03:25:03.300Z,2.42
2019-05-15T03:26:04.614Z,2.36
2019-05-15T03:27:03.162Z,2.32
2019-05-15T03:28:03.254Z,2.12
2019-05-15T03:29:03.491Z,2.35
2019-05-15T03:30:03.104Z,2.52
2019-05-15T03:31:39.850Z,2.04
2019-05-15T03:32:26.984Z,1.66
2019-05-15T03:34:04.313Z,2.09
2019-05-15T03:35:06.053Z,2.64
2019-05-15T03:36:04.011Z,2.05
2019-05-15T03:37:04.406Z,1.95
2019-05-15T03:38:02.982Z,2.59
2019-05-15T03:39:03.576Z,1.98
2019-05-15T03:40:02.727Z,2.43
2019-05-15T03:41:02.422Z,2.91
2019-05-15T03:42:02.762Z,2.25
2019-05-15T03:43:02.840Z,2.26
2019-05-15T03:44:02.791Z,2.28
2019-05-15T03:45:03.718Z,1.92
2019-05-15T03:46:03.691Z,2.29
2019-05-15T03:47:03.594Z,2.15
2019-05-15T03:48:02.864Z,2.15
2019-05-15T03:49:03.325Z,1.99
2019-05-15T03:50:03.421Z,2.2
2019-05-15T03:51:03.507Z,2.2
2019-05-15T03:52:03.250Z,2.14
2019-05-15T03:53:03.294Z,2.06
2019-05-15T03:54:03.267Z,2.06
2019-05-15T03:55:03.180Z,1.99
2019-05-15T03:56:03.269Z,2.19
2019-05-15T03:57:02.995Z,2.07
2019-05-15T03:58:03.245Z,2.32
2019-05-15T03:59:03.318Z,1.71
2019-05-15T04:00:03.179Z,2.17
2019-05-15T04:01:03.307Z,2.85
2019-05-15T04:02:02.917Z,2.21
2019-05-15T04:03:03.209Z,2.18
2019-05-15T04:04:02.990Z,2.22
2019-05-15T04:05:02.990Z,2.32
2019-05-15T04:06:02.989Z,2.49
2019-05-15T04:07:02.837Z,2.26
2019-05-15T04:08:02.879Z,2.06
2019-05-15T04:09:02.855Z,2.28
2019-05-15T04:10:02.894Z,1.92
2019-05-15T04:11:02.763Z,2.11
2019-05-15T04:12:02.810Z,2.19
2019-05-15T04:13:02.734Z,2.34
2019-05-15T04:14:02.645Z,2.25
2019-05-15T04:15:02.909Z,2.35
2019-05-15T04:16:02.818Z,2.14
2019-05-15T04:17:03.455Z,2.03
2019-05-15T04:18:02.735Z,2.53
2019-05-15T04:19:02.773Z,2.28
2019-05-15T04:20:02.786Z,2.34
2019-05-15T04:21:03.550Z,2.59
2019-05-15T04:22:03.200Z,2.56
2019-05-15T04:23:02.519Z,2.09
2019-05-15T04:24:02.265Z,2.2
2019-05-15T04:25:03.474Z,2.28
2019-05-15T04:26:03.496Z,2.09
2019-05-15T04:27:10.449Z,2.32
2019-05-15T04:28:03.468Z,2.16
2019-05-15T04:29:03.293Z,2.25
2019-05-15T04:30:03.260Z,2.48
2019-05-15T04:31:03.466Z,2.75
2019-05-15T04:32:06.309Z,2.75
2019-05-15T04:33:03.389Z,2.19
2019-05-15T04:34:03.235Z,2.29
2019-05-15T04:35:03.129Z,2.42
2019-05-15T04:36:03.109Z,1.9
2019-05-15T04:37:03.081Z,1.9
2019-05-15T04:38:02.959Z,2.11
2019-05-15T04:39:02.728Z,2.11
2019-05-15T04:40:03.029Z,2.73
2019-05-15T04:41:02.708Z,2.28
2019-05-15T04:42:03.026Z,2.28
2019-05-15T04:43:03.076Z,2.35
2019-05-15T04:44:02.576Z,2.26
2019-05-15T04:45:03.671Z,2.38
2019-05-15T04:46:03.390Z,2.05
2019-05-15T04:47:03.527Z,2.62
2019-05-15T04:48:03.676Z,2.48
2019-05-15T04:49:02.574Z,1.92
2019-05-15T04:50:03.612Z,2.25
2019-05-15T04:51:03.348Z,2.39
2019-05-15T04:52:04.096Z,2.01
2019-05-15T04:53:03.393Z,2.2
2019-05-15T04:54:03.195Z,2.46
2019-05-15T04:55:03.433Z,2.28
2019-05-15T04:56:03.176Z,2.31
2019-05-15T04:57:03.289Z,2.24
2019-05-15T04:58:03.177Z,1.97
2019-05-15T04:59:03.147Z,1.96
2019-05-15T05:00:03.306Z,2.14
2019-05-15T05:01:03.213Z,2.41
2019-05-15T05:02:24.332Z,3.29
2019-05-15T05:03:02.973Z,2.55
2019-05-15T05:04:02.937Z,2.28
2019-05-15T05:05:02.608Z,2.25
2019-05-15T05:06:03.241Z,2.29
2019-05-15T05:07:03.218Z,2.47
2019-05-15T05:08:03.197Z,2.28
2019-05-15T05:09:02.925Z,2.5
2019-05-15T05:10:02.901Z,2.05
2019-05-15T05:11:02.733Z,3.38
2019-05-15T05:12:02.745Z,2.27
2019-05-15T05:13:02.667Z,2.2
2019-05-15T05:14:02.943Z,2.12
2019-05-15T05:15:02.875Z,2.06
2019-05-15T05:16:03.493Z,2.06
2019-05-15T05:17:02.690Z,2.53
2019-05-15T05:18:03.481Z,2.94
2019-05-15T05:19:03.303Z,2.41
2019-05-15T05:20:03.417Z,2.72
2019-05-15T05:21:03.369Z,3.05
2019-05-15T05:22:03.421Z,2.79
2019-05-15T05:23:03.383Z,2.55
2019-05-15T05:24:03.490Z,2.49
2019-05-15T05:25:03.454Z,2.49
2019-05-15T05:26:03.480Z,2.5
2019-05-15T05:27:03.497Z,2.5
2019-05-15T05:28:03.290Z,2.46
2019-05-15T05:29:02.894Z,2.13
2019-05-15T05:30:03.410Z,2.13
2019-05-15T05:31:02.832Z,2.11
2019-05-15T05:32:03.327Z,2.52
2019-05-15T05:33:03.044Z,2.45
2019-05-15T05:34:03.251Z,1.98
2019-05-15T05:35:03.218Z,2.12
2019-05-15T05:36:03.091Z,2.24
2019-05-15T05:37:03.019Z,1.96
2019-05-15T05:38:03.124Z,2.17
2019-05-15T05:39:03.062Z,2.34
2019-05-15T05:40:02.927Z,2.49
2019-05-15T05:41:03.053Z,2.19
2019-05-15T05:42:02.857Z,1.87
2019-05-15T05:43:02.828Z,2.56
2019-05-15T05:44:02.913Z,2.23
2019-05-15T05:45:03.120Z,2.34
2019-05-15T05:46:02.784Z,2.08
2019-05-15T05:47:03.262Z,2.48
2019-05-15T05:48:02.777Z,2.26
2019-05-15T05:49:02.778Z,2.05
2019-05-15T05:50:02.765Z,1.84
2019-05-15T05:51:03.665Z,1.96
2019-05-15T05:52:02.758Z,2.52
2019-05-15T05:53:03.345Z,1.97
2019-05-15T05:54:03.302Z,2.19
2019-05-15T05:55:03.252Z,2.47
2019-05-15T05:56:02.597Z,2.31
2019-05-15T05:57:03.511Z,2.72
2019-05-15T05:58:02.615Z,2.08
2019-05-15T05:59:03.262Z,2.12
2019-05-15T06:00:03.458Z,1.84
2019-05-15T06:01:03.405Z,2.26
2019-05-15T06:02:02.996Z,2.15
2019-05-15T06:03:03.026Z,1.67
2019-05-15T06:04:03.175Z,2.22
2019-05-15T06:05:03.231Z,2.47
2019-05-15T06:06:03.145Z,2.59
2019-05-15T06:07:14.388Z,2.01
2019-05-15T06:08:02.816Z,1.98
2019-05-15T06:09:03.231Z,2.76
2019-05-15T06:10:02.999Z,2.86
2019-05-15T06:11:03.087Z,2.13
2019-05-15T06:12:03.037Z,2.36
2019-05-15T06:13:03.170Z,2.36
2019-05-15T06:14:03.056Z,1.96
2019-05-15T06:15:02.991Z,2.21
2019-05-15T06:16:03.001Z,2.21
2019-05-15T06:17:02.972Z,2.52
2019-05-15T06:18:02.553Z,1.86
2019-05-15T06:19:02.891Z,1.86
2019-05-15T06:20:03.079Z,2.88
2019-05-15T06:21:02.728Z,2.21
2019-05-15T06:22:02.825Z,2.14
2019-05-15T06:23:02.634Z,1.8
2019-05-15T06:24:06.231Z,2.42
2019-05-15T06:25:05.288Z,2.26
2019-05-15T06:26:03.441Z,2.71
2019-05-15T06:27:02.412Z,2.36
2019-05-15T06:28:03.259Z,1.98
2019-05-15T06:29:03.575Z,1.96
2019-05-15T06:30:03.265Z,2.24
2019-05-15T06:31:03.335Z,2.44
2019-05-15T06:32:03.255Z,2.06
2019-05-15T06:33:13.357Z,2.11
2019-05-15T06:34:03.298Z,2.08
2019-05-15T06:35:02.926Z,2.34
2019-05-15T06:36:03.303Z,2.23
2019-05-15T06:37:03.244Z,1.92
2019-05-15T06:38:02.765Z,2.38
2019-05-15T06:39:03.070Z,1.98
2019-05-15T06:40:03.086Z,2.08
2019-05-15T06:41:02.936Z,2.69
2019-05-15T06:42:03.074Z,2.09
2019-05-15T06:43:02.883Z,2.19
2019-05-15T06:44:02.939Z,2.39
2019-05-15T06:45:02.870Z,2.5
2019-05-15T06:46:02.868Z,2.04
2019-05-15T06:47:02.743Z,2.34
2019-05-15T06:48:02.815Z,2.14
2019-05-15T06:49:02.761Z,2.45
2019-05-15T06:50:02.538Z,2.71
2019-05-15T06:51:02.896Z,2.64
2019-05-15T06:52:03.406Z,2.65
2019-05-15T06:53:02.755Z,2.4
2019-05-15T06:54:02.685Z,2.55
2019-05-15T06:55:03.658Z,2.24
2019-05-15T06:56:03.585Z,2.72
2019-05-15T06:57:03.637Z,2.41
2019-05-15T06:58:03.454Z,2.11
2019-05-15T06:59:03.245Z,2.4
2019-05-15T07:00:03.377Z,2.36
2019-05-15T07:01:03.485Z,2.45
2019-05-15T07:02:03.489Z,2.76
2019-05-15T07:03:24.659Z,2.75
2019-05-15T07:04:03.339Z,2.49
2019-05-15T07:05:03.926Z,2.38
2019-05-15T07:06:03.298Z,2.61
2019-05-15T07:07:03.147Z,2.41
2019-05-15T07:08:02.934Z,2.41
2019-05-15T07:09:03.265Z,2.12
2019-05-15T07:10:03.341Z,2.96
2019-05-15T07:11:03.457Z,2.31
2019-05-15T07:12:03.098Z,2.4
2019-05-15T07:13:03.023Z,2.77
2019-05-15T07:14:02.930Z,2.54
2019-05-15T07:15:03.234Z,2.62
2019-05-15T07:16:02.695Z,2.53
2019-05-15T07:17:02.865Z,2.76
2019-05-15T07:18:03.004Z,2.81
2019-05-15T07:19:02.851Z,2.34
2019-05-15T07:20:02.794Z,2.9
2019-05-15T07:21:02.552Z,2.54
2019-05-15T07:22:02.797Z,2.79
2019-05-15T07:23:03.509Z,2.91
2019-05-15T07:24:03.582Z,2.84
2019-05-15T07:25:03.461Z,2.22
2019-05-15T07:26:02.715Z,2.52
2019-05-15T07:27:03.525Z,2.29
2019-05-15T07:28:03.739Z,2.46
2019-05-15T07:29:03.479Z,2.12
2019-05-15T07:30:02.430Z,2.52
2019-05-15T07:31:03.330Z,2.34
2019-05-15T07:32:03.393Z,2.48
2019-05-15T07:33:03.131Z,2.65
2019-05-15T07:34:03.237Z,2.38
2019-05-15T07:35:03.318Z,2.72
2019-05-15T07:36:03.330Z,2.24
2019-05-15T07:37:03.395Z,2.7
2019-05-15T07:38:03.321Z,2.93
2019-05-15T07:39:03.354Z,2.58
2019-05-15T07:40:02.935Z,2.78
2019-05-15T07:41:04.705Z,2.65
2019-05-15T07:42:03.217Z,2.85
2019-05-15T07:43:03.149Z,2.29
2019-05-15T07:44:03.015Z,2.91
2019-05-15T07:45:03.333Z,2.25
2019-05-15T07:46:02.801Z,2.5
2019-05-15T07:47:02.811Z,2.72
2019-05-15T07:48:02.902Z,2.43
2019-05-15T07:49:03.095Z,2.64
2019-05-15T07:50:02.882Z,2.8
2019-05-15T07:51:02.803Z,2.78
2019-05-15T07:52:03.060Z,2.89
2019-05-15T07:53:02.800Z,3.04
2019-05-15T07:54:02.932Z,2.64
2019-05-15T07:55:02.920Z,3.19
2019-05-15T07:56:02.974Z,3.19
2019-05-15T07:57:02.886Z,3
2019-05-15T07:58:03.718Z,2.34
2019-05-15T07:59:02.928Z,2.34
2019-05-15T08:00:02.915Z,2.88
2019-05-15T08:01:05.689Z,2.87
2019-05-15T08:02:03.469Z,2.87
2019-05-15T08:03:02.840Z,2.76
2019-05-15T08:04:29.043Z,2.92
2019-05-15T08:05:03.170Z,2.89
2019-05-15T08:06:03.388Z,2.61
2019-05-15T08:07:03.417Z,3.38
2019-05-15T08:08:03.369Z,2.4
2019-05-15T08:09:03.193Z,2.44
2019-05-15T08:10:03.312Z,2.41
2019-05-15T08:11:21.567Z,2.49
2019-05-15T08:12:03.498Z,3.04
2019-05-15T08:13:02.752Z,2.79
2019-05-15T08:14:03.885Z,2.98
2019-05-15T08:15:02.761Z,3.18
2019-05-15T08:16:03.153Z,3.46
2019-05-15T08:17:02.665Z,3.21
2019-05-15T08:18:12.655Z,2.66
2019-05-15T08:19:03.430Z,3.05
2019-05-15T08:20:02.725Z,2.6
2019-05-15T08:21:02.888Z,3.02
2019-05-15T08:22:03.567Z,2.52
2019-05-15T08:23:02.605Z,2.88
2019-05-15T08:24:03.647Z,3.04
2019-05-15T08:25:11.255Z,3.15
2019-05-15T08:26:03.524Z,2.6
2019-05-15T08:27:03.727Z,2.78
2019-05-15T08:28:03.505Z,2.46
2019-05-15T08:29:03.606Z,2.78
2019-05-15T08:30:03.488Z,2.74
2019-05-15T08:31:10.026Z,2.5
2019-05-15T08:32:03.379Z,2.77
2019-05-15T08:33:03.194Z,2.95
2019-05-15T08:34:16.340Z,2.46
2019-05-15T08:35:03.053Z,2.7
2019-05-15T08:36:03.209Z,2.72
2019-05-15T08:37:03.128Z,2.75
2019-05-15T08:38:03.027Z,3.05
2019-05-15T08:39:02.860Z,2.92
2019-05-15T08:40:04.105Z,2.44
2019-05-15T08:41:03.100Z,2.71
2019-05-15T08:42:03.093Z,2.75
2019-05-15T08:43:03.056Z,3.26
2019-05-15T08:44:03.499Z,2.76
2019-05-15T08:45:03.088Z,2.76
2019-05-15T08:46:02.912Z,2.52
2019-05-15T08:47:03.008Z,2.52
2019-05-15T08:48:02.917Z,2.41
2019-05-15T08:49:02.721Z,2.69
2019-05-15T08:50:02.770Z,2.69
2019-05-15T08:51:03.673Z,2.45
2019-05-15T08:52:03.862Z,2.81
2019-05-15T08:53:03.791Z,2.74
2019-05-15T08:54:03.655Z,2.48
2019-05-15T08:55:02.905Z,2.98
2019-05-15T08:56:03.494Z,2.79
2019-05-15T08:57:02.918Z,3.18
2019-05-15T08:58:13.208Z,2.69
2019-05-15T08:59:03.416Z,2.86
2019-05-15T09:00:03.498Z,2.42
2019-05-15T09:01:03.535Z,3.05
2019-05-15T09:02:03.704Z,2.53
2019-05-15T09:03:02.553Z,2.64
2019-05-15T09:04:03.736Z,2.85
2019-05-15T09:05:03.431Z,2.9
2019-05-15T09:06:02.867Z,2.57
2019-05-15T09:07:03.445Z,2.52
2019-05-15T09:08:03.459Z,2.76
2019-05-15T09:09:03.470Z,2.87
2019-05-15T09:10:03.266Z,2.82
2019-05-15T09:11:03.671Z,2.73
2019-05-15T09:12:03.246Z,2.56
2019-05-15T09:13:03.257Z,3.04
2019-05-15T09:14:03.183Z,2.56
2019-05-15T09:15:03.440Z,3.28
2019-05-15T09:16:03.279Z,2.94
2019-05-15T09:17:02.955Z,3.04
2019-05-15T09:18:16.095Z,3.41
2019-05-15T09:19:03.069Z,2.66
2019-05-15T09:20:03.146Z,2.65
2019-05-15T09:21:02.979Z,2.61
2019-05-15T09:22:02.948Z,3.11
2019-05-15T09:23:03.847Z,2.81
2019-05-15T09:24:03.799Z,2.42
2019-05-15T09:25:03.919Z,2.94
2019-05-15T09:26:02.704Z,2.82
2019-05-15T09:27:03.778Z,2.36
2019-05-15T09:28:03.106Z,2.4
2019-05-15T09:29:02.858Z,3.21
2019-05-15T09:30:03.874Z,3.21
2019-05-15T09:31:03.738Z,2.85
2019-05-15T09:32:03.561Z,2.47
2019-05-15T09:33:02.854Z,2.47
2019-05-15T09:34:03.413Z,2.82
2019-05-15T09:35:03.991Z,2.82
2019-05-15T09:36:03.450Z,2.23
2019-05-15T09:37:03.322Z,2.37
2019-05-15T09:38:03.264Z,2.37
2019-05-15T09:39:03.805Z,2.68
2019-05-15T09:40:03.683Z,3.11
2019-05-15T09:41:03.596Z,2.51
2019-05-15T09:42:03.516Z,2.58
2019-05-15T09:43:03.432Z,2.63
2019-05-15T09:44:02.947Z,2.77
2019-05-15T09:45:03.206Z,2.72
2019-05-15T09:46:03.334Z,2.68
2019-05-15T09:47:03.125Z,2.66
2019-05-15T09:48:02.990Z,2.61
2019-05-15T09:49:03.093Z,2.89
2019-05-15T09:50:03.138Z,2.7
2019-05-15T09:51:02.890Z,2.49
2019-05-15T09:52:02.934Z,2.75
2019-05-15T09:53:02.812Z,2.87
2019-05-15T09:54:02.596Z,2.82
2019-05-15T09:55:03.075Z,2.77
2019-05-15T09:56:03.009Z,2.74
2019-05-15T09:57:02.978Z,2.75
2019-05-15T09:58:03.433Z,2.92
2019-05-15T09:59:03.055Z,2.72
2019-05-15T10:00:02.780Z,2.91
2019-05-15T10:01:03.766Z,2.63
2019-05-15T10:02:03.648Z,2.81
2019-05-15T10:03:02.666Z,2.94
2019-05-15T10:04:03.633Z,2.59
2019-05-15T10:05:10.846Z,2.62
2019-05-15T10:06:02.834Z,2.61
2019-05-15T10:07:03.310Z,3.06
2019-05-15T10:08:03.625Z,3.05
2019-05-15T10:09:03.473Z,3.33
2019-05-15T10:10:03.682Z,2.51
2019-05-15T10:11:03.523Z,2.95
2019-05-15T10:12:03.492Z,3.09
2019-05-15T10:13:03.322Z,2.86
2019-05-15T10:14:03.556Z,3.11
2019-05-15T10:15:03.540Z,2.91
2019-05-15T10:16:03.591Z,2.56
2019-05-15T10:17:03.508Z,3.05
2019-05-15T10:18:03.227Z,2.99
2019-05-15T10:19:03.323Z,2.83
2019-05-15T10:20:03.348Z,2.83
2019-05-15T10:21:03.387Z,2.84
2019-05-15T10:22:03.021Z,2.79
2019-05-15T10:23:03.175Z,2.79
2019-05-15T10:24:03.378Z,3.15
2019-05-15T10:25:03.086Z,3.11
2019-05-15T10:26:02.973Z,3.35
2019-05-15T10:27:03.080Z,3.35
2019-05-15T10:28:02.781Z,3.06
2019-05-15T10:29:03.641Z,2.81
2019-05-15T10:30:02.935Z,2.81
2019-05-15T10:31:03.053Z,2.01
2019-05-15T10:32:02.721Z,2.95
2019-05-15T10:33:02.785Z,2.92
2019-05-15T10:34:03.734Z,3.35
2019-05-15T10:35:02.884Z,2.95
2019-05-15T10:36:02.666Z,2.98
2019-05-15T10:37:02.708Z,2.64
2019-05-15T10:38:03.679Z,3.45
2019-05-15T10:39:03.368Z,2.58
2019-05-15T10:40:03.535Z,2.84
2019-05-15T10:41:14.676Z,2.94
2019-05-15T10:42:02.648Z,3.11
2019-05-15T10:43:03.226Z,2.88
2019-05-15T10:44:03.529Z,3.22
2019-05-15T10:45:03.391Z,2.62
2019-05-15T10:46:03.042Z,2.57
2019-05-15T10:47:03.297Z,2.75
2019-05-15T10:48:03.517Z,2.56
2019-05-15T10:49:03.079Z,2.85
2019-05-15T10:50:03.544Z,2.85
2019-05-15T10:51:10.129Z,2.6
2019-05-15T10:52:03.019Z,2.67
2019-05-15T10:53:03.023Z,3.14
2019-05-15T10:54:02.973Z,3.01
2019-05-15T10:55:03.355Z,2.75
2019-05-15T10:56:02.963Z,2.6
2019-05-15T10:57:06.097Z,3.08
2019-05-15T10:58:02.935Z,3.25
2019-05-15T10:59:03.663Z,2.86
2019-05-15T11:00:03.179Z,3.08
2019-05-15T11:01:04.267Z,2.93
2019-05-15T11:02:02.899Z,3.11
2019-05-15T11:03:03.251Z,2.85
2019-05-15T11:04:03.180Z,2.91
2019-05-15T11:05:02.912Z,2.81
2019-05-15T11:06:03.063Z,2.7
2019-05-15T11:07:02.695Z,2.9
2019-05-15T11:08:02.592Z,2.63
2019-05-15T11:09:02.770Z,2.88
2019-05-15T11:10:03.752Z,2.41
2019-05-15T11:11:02.595Z,2.46
2019-05-15T11:12:03.047Z,2.46
2019-05-15T11:13:02.971Z,2.71
2019-05-15T11:14:02.645Z,2.69
2019-05-15T11:15:02.869Z,2.69
2019-05-15T11:16:02.845Z,2.66
2019-05-15T11:17:02.780Z,2.56
2019-05-15T11:18:03.479Z,2.4
2019-05-15T11:19:02.868Z,2.43
2019-05-15T11:20:03.841Z,2.59
2019-05-15T11:21:03.027Z,2.78
2019-05-15T11:22:03.471Z,2.27
2019-05-15T11:23:03.819Z,2.72
2019-05-15T11:24:03.225Z,2.66
2019-05-15T11:25:03.428Z,2.28
2019-05-15T11:26:03.382Z,2.85
2019-05-15T11:27:03.218Z,2.92
2019-05-15T11:28:03.299Z,2.18
2019-05-15T11:29:03.213Z,2.7
2019-05-15T11:30:03.196Z,2.66
2019-05-15T11:31:02.978Z,2.36
2019-05-15T11:32:03.215Z,2.66
2019-05-15T11:33:03.144Z,2.27
2019-05-15T11:34:02.985Z,2.31
2019-05-15T11:35:04.810Z,2.36
2019-05-15T11:36:06.454Z,2.47
2019-05-15T11:37:02.925Z,2.54
2019-05-15T11:38:02.709Z,2.49
2019-05-15T11:39:02.913Z,2.39
2019-05-15T11:40:03.007Z,2.56
2019-05-15T11:41:04.873Z,2.49
2019-05-15T11:42:02.602Z,2.34
2019-05-15T11:43:02.991Z,2.61
2019-05-15T11:44:02.669Z,2.35
2019-05-15T11:45:02.996Z,2.3
2019-05-15T11:46:03.034Z,2.24
2019-05-15T11:47:02.722Z,2.67
2019-05-15T11:48:02.622Z,2.46
2019-05-15T11:49:02.848Z,2.68
2019-05-15T11:50:02.899Z,2.06
2019-05-15T11:51:03.568Z,2.45
2019-05-15T11:52:02.705Z,2.23
2019-05-15T11:53:03.336Z,2.05
2019-05-15T11:54:02.677Z,2.32
2019-05-15T11:55:03.593Z,2.61
2019-05-15T11:56:03.557Z,3.05
2019-05-15T11:57:03.384Z,3.21
2019-05-15T11:58:03.462Z,2.34
2019-05-15T11:59:03.443Z,1.99
2019-05-15T12:00:04.772Z,1.99
2019-05-15T12:01:03.473Z,2.27
2019-05-15T12:02:02.931Z,2.2
2019-05-15T12:03:03.229Z,2.56
2019-05-15T12:04:02.911Z,2.56
2019-05-15T12:05:03.237Z,2.58
2019-05-15T12:06:19.609Z,2.08
2019-05-15T12:07:03.322Z,2.08
2019-05-15T12:08:03.291Z,2.16
2019-05-15T12:09:03.137Z,2.65
2019-05-15T12:10:03.195Z,2.65
2019-05-15T12:11:03.228Z,2.45
2019-05-15T12:12:03.062Z,2.12
2019-05-15T12:13:03.158Z,2.49
2019-05-15T12:14:03.146Z,2.64
2019-05-15T12:15:03.163Z,2.78
2019-05-15T12:16:02.907Z,2.45
2019-05-15T12:17:15.320Z,2.48
2019-05-15T12:18:02.508Z,2.55
2019-05-15T12:21:03.759Z,3.11
2019-05-15T12:22:03.729Z,2.81
2019-05-15T12:23:03.625Z,2.67
2019-05-15T12:24:03.440Z,2.47
2019-05-15T12:25:03.511Z,2.58
2019-05-15T12:26:03.347Z,2.55
2019-05-15T12:27:18.129Z,2.85
2019-05-15T12:28:03.396Z,2.74
2019-05-15T12:29:03.695Z,2.93
2019-05-15T12:30:03.521Z,2.69
2019-05-15T12:31:03.427Z,2.56
2019-05-15T12:32:30.051Z,2.88
2019-05-15T12:33:03.303Z,2.32
2019-05-15T12:34:03.140Z,2.6
2019-05-15T12:35:03.350Z,2.81
2019-05-15T12:36:02.999Z,2.56
2019-05-15T12:37:03.238Z,2.95
2019-05-15T12:38:03.234Z,3.11
2019-05-15T12:39:13.686Z,2.81
2019-05-15T12:59:40.914Z,2.92
2019-05-15T13:00:03.317Z,3.13
2019-05-15T13:01:18.022Z,2.92
2019-05-15T13:02:03.107Z,3.11
2019-05-15T13:03:03.587Z,3.01
2019-05-15T13:04:03.060Z,2.65
2019-05-15T13:05:03.492Z,3.24
2019-05-15T13:06:03.096Z,2.96
2019-05-15T13:07:16.512Z,3.17
2019-05-15T13:08:02.824Z,3.26
2019-05-15T13:09:03.200Z,3.04
2019-05-15T13:10:03.052Z,3
2019-05-15T13:11:03.050Z,2.85
2019-05-15T13:12:03.105Z,2.91
2019-05-15T13:13:05.796Z,3.01
2019-05-15T13:14:02.657Z,2.79
2019-05-15T13:15:03.744Z,3.03
2019-05-15T13:16:02.884Z,3.03
2019-05-15T13:17:03.668Z,3.09
2019-05-15T13:18:03.558Z,2.64
2019-05-15T13:19:03.680Z,3.01
2019-05-15T13:20:02.853Z,3.18
2019-05-15T13:21:03.538Z,2.79
2019-05-15T13:22:03.509Z,3.02
2019-05-15T13:23:03.463Z,3.04
2019-05-15T13:24:03.508Z,3.01
2019-05-15T13:25:03.767Z,3.41
2019-05-15T13:26:03.244Z,3.29
2019-05-15T13:27:03.614Z,3.07
2019-05-15T13:28:03.395Z,3.39
2019-05-15T13:29:03.640Z,2.97
2019-05-15T13:30:03.505Z,3.02
2019-05-15T13:31:03.259Z,2.54
2019-05-15T13:32:03.402Z,3.24
2019-05-15T13:33:03.259Z,2.76
2019-05-15T13:34:03.040Z,2.7
2019-05-15T13:35:03.035Z,3.04
2019-05-15T13:36:03.004Z,3.36
2019-05-15T13:37:02.953Z,2.96
2019-05-15T13:38:03.037Z,3.26
2019-05-15T13:39:02.868Z,3.15
2019-05-15T13:40:02.885Z,3.15
2019-05-15T13:41:02.760Z,3.03
2019-05-15T13:42:02.694Z,3.28